createdAt,value
2023-04-24T00:00:08.347Z,97017.53
2023-04-24T00:02:34.614Z,97014.03
2023-04-24T00:05:00.872Z,97009.50
2023-04-24T00:07:26.989Z,97007.88
2023-04-24T00:09:53.114Z,97007.88
2023-04-24T00:12:19.225Z,97009.72
2023-04-24T00:14:45.317Z,97012.41
2023-04-24T00:17:11.432Z,97017.75
2023-04-24T00:19:37.539Z,97018.59
2023-04-24T00:22:03.680Z,97023.94
2023-04-24T00:24:29.796Z,97015.91
2023-04-24T00:26:55.888Z,97016.94
2023-04-24T00:29:21.996Z,97019.63
2023-04-24T00:31:48.112Z,97018.59
2023-04-24T00:34:14.227Z,97010.56
2023-04-24T00:36:40.336Z,97015.91
2023-04-24T00:39:06.481Z,97020.44
2023-04-24T00:41:32.579Z,97006.25
2023-04-24T00:43:58.708Z,97003.84
2023-04-24T00:46:24.839Z,97000.91
2023-04-24T00:48:50.961Z,97006.25
2023-04-24T00:51:17.070Z,97010.00
2023-04-24T00:53:43.234Z,97002.78
2023-04-24T00:56:09.331Z,97006.50
2023-04-24T00:58:35.429Z,97006.50
2023-04-24T01:01:01.562Z,97001.41
2023-04-24T01:03:27.812Z,96996.84
2023-04-24T01:05:54.019Z,97003.28
2023-04-24T01:08:20.139Z,97003.28
2023-04-24T01:10:46.252Z,97001.41
2023-04-24T01:13:12.444Z,97000.59
2023-04-24T01:15:39.085Z,97000.59
2023-04-24T01:18:05.185Z,96994.44
2023-04-24T01:20:31.322Z,96985.34
2023-04-24T01:22:57.435Z,96975.72
2023-04-24T01:25:23.536Z,96980.00
2023-04-24T01:27:49.643Z,96980.22
2023-04-24T01:30:15.755Z,96982.91
2023-04-24T01:32:41.876Z,96969.53
2023-04-24T01:35:07.974Z,96978.38
2023-04-24T01:37:34.114Z,96983.97
2023-04-24T01:40:00.226Z,96989.31
2023-04-24T01:42:26.319Z,96982.91
2023-04-24T01:44:52.416Z,96991.19
2023-04-24T01:47:18.521Z,96978.63
2023-04-24T01:49:45.001Z,96978.84
2023-04-24T01:52:11.386Z,96973.50
2023-04-24T01:54:37.484Z,96973.50
2023-04-24T01:57:03.585Z,96980.72
2023-04-24T01:59:29.784Z,96977.25
2023-04-24T02:01:55.916Z,96984.69
2023-04-24T02:04:22.059Z,96985.28
2023-04-24T02:06:48.247Z,96992.50
2023-04-24T02:09:14.365Z,96984.69
2023-04-24T02:11:40.465Z,96980.97
2023-04-24T02:14:06.575Z,96976.69
2023-04-24T02:16:32.671Z,96982.03
2023-04-24T02:18:58.790Z,96975.88
2023-04-24T02:21:25.302Z,96983.09
2023-04-24T02:23:51.408Z,96986.81
2023-04-24T02:26:17.514Z,96992.97
2023-04-24T02:28:43.633Z,96988.13
2023-04-24T02:31:09.722Z,96991.03
2023-04-24T02:33:35.814Z,96997.44
2023-04-24T02:36:01.926Z,97003.59
2023-04-24T02:38:28.048Z,97007.91
2023-04-24T02:40:54.145Z,96999.06
2023-04-24T02:43:20.273Z,97005.47
2023-04-24T02:45:46.436Z,97001.72
2023-04-24T02:48:12.582Z,96997.44
2023-04-24T02:50:38.686Z,96995.84
2023-04-24T02:53:04.809Z,97002.00
2023-04-24T02:55:30.901Z,97005.47
2023-04-24T02:57:57.024Z,97007.34
2023-04-24T03:00:23.117Z,97003.03
2023-04-24T03:02:49.493Z,97004.88
2023-04-24T03:05:15.696Z,96998.50
2023-04-24T03:07:41.785Z,97002.19
2023-04-24T03:10:07.902Z,97012.91
2023-04-24T03:12:34.114Z,97017.44
2023-04-24T03:15:00.224Z,97017.66
2023-04-24T03:17:26.330Z,97021.19
2023-04-24T03:19:52.450Z,97024.09
2023-04-24T03:22:18.538Z,97025.97
2023-04-24T03:24:44.644Z,97033.72
2023-04-24T03:27:10.763Z,97028.63
2023-04-24T03:29:36.880Z,97032.34
2023-04-24T03:32:02.994Z,97033.97
2023-04-24T03:34:29.168Z,97033.97
2023-04-24T03:36:55.257Z,97035.03
2023-04-24T03:39:21.369Z,97040.63
2023-04-24T03:41:47.521Z,97042.25
2023-04-24T03:44:13.626Z,97040.63
2023-04-24T03:46:39.794Z,97043.31
2023-04-24T03:49:05.928Z,97040.63
2023-04-24T03:51:32.033Z,97045.16
2023-04-24T03:53:58.159Z,97045.97
2023-04-24T03:56:24.331Z,97052.38
2023-04-24T03:58:50.439Z,97046.22
2023-04-24T04:01:16.576Z,97043.53
2023-04-24T04:03:42.899Z,97047.28
2023-04-24T04:06:09.046Z,97050.75
2023-04-24T04:08:35.126Z,97063.31
2023-04-24T04:11:02.841Z,97044.84
2023-04-24T04:13:30.092Z,97050.19
2023-04-24T04:15:56.197Z,97059.81
2023-04-24T04:18:22.339Z,97059.25
2023-04-24T04:20:48.435Z,97054.97
2023-04-24T04:23:14.533Z,97056.84
2023-04-24T04:25:41.160Z,97065.66
2023-04-24T04:28:07.264Z,97064.59
2023-04-24T04:30:33.354Z,97060.88
2023-04-24T04:32:59.476Z,97048.81
2023-04-24T04:35:25.612Z,97041.59
2023-04-24T04:37:51.720Z,97054.72
2023-04-24T04:40:17.837Z,97046.94
2023-04-24T04:42:43.922Z,97057.63
2023-04-24T04:45:10.013Z,97051.22
2023-04-24T04:47:36.165Z,97052.06
2023-04-24T04:50:02.307Z,97059.25
2023-04-24T04:52:28.419Z,97063.78
2023-04-24T04:54:54.527Z,97057.63
2023-04-24T04:57:20.631Z,97063.00
2023-04-24T04:59:46.732Z,97056.84
2023-04-24T05:02:12.950Z,97066.72
2023-04-24T05:04:39.389Z,97062.19
2023-04-24T05:07:05.607Z,97059.75
2023-04-24T05:09:31.740Z,97063.22
2023-04-24T05:11:57.840Z,97059.75
2023-04-24T05:14:23.931Z,97062.19
2023-04-24T05:16:50.550Z,97057.06
2023-04-24T05:19:16.766Z,97060.53
2023-04-24T05:21:42.882Z,97053.81
2023-04-24T05:24:09.034Z,97051.72
2023-04-24T05:26:35.199Z,97055.47
2023-04-24T05:29:01.322Z,97056.50
2023-04-24T05:31:27.471Z,97058.38
2023-04-24T05:33:53.649Z,97053.00
2023-04-24T05:36:19.782Z,97052.22
2023-04-24T05:38:45.888Z,97054.88
2023-04-24T05:41:11.990Z,97059.16
2023-04-24T05:43:38.091Z,97063.94
2023-04-24T05:46:04.216Z,97064.78
2023-04-24T05:48:30.325Z,97063.41
2023-04-24T05:50:56.415Z,97068.75
2023-04-24T05:53:22.534Z,97071.44
2023-04-24T05:55:48.644Z,97069.78
2023-04-24T05:58:14.744Z,97083.16
2023-04-24T06:00:40.867Z,97073.53
2023-04-24T06:03:07.180Z,97071.88
2023-04-24T06:05:33.654Z,97062.03
2023-04-24T06:07:59.793Z,97067.38
2023-04-24T06:10:25.889Z,97085.03
2023-04-24T06:12:52.006Z,97073.53
2023-04-24T06:15:18.137Z,97071.66
2023-04-24T06:17:44.337Z,97081.53
2023-04-24T06:20:10.452Z,97076.19
2023-04-24T06:22:37.074Z,97078.88
2023-04-24T06:25:03.170Z,97076.19
2023-04-24T06:27:29.277Z,97077.00
2023-04-24T06:29:55.493Z,97086.09
2023-04-24T06:32:21.686Z,97085.03
2023-04-24T06:34:47.838Z,97086.91
2023-04-24T06:37:13.989Z,97091.44
2023-04-24T06:39:40.080Z,97085.25
2023-04-24T06:42:06.175Z,97087.94
2023-04-24T06:44:32.275Z,97094.34
2023-04-24T06:46:58.369Z,97087.94
2023-04-24T06:49:24.499Z,97091.66
2023-04-24T06:51:50.650Z,97097.03
2023-04-24T06:54:16.760Z,97092.69
2023-04-24T06:56:42.858Z,97093.53
2023-04-24T06:59:08.971Z,97096.22
2023-04-24T07:01:35.113Z,97089.22
2023-04-24T07:04:01.437Z,97091.09
2023-04-24T07:06:28.208Z,97082.25
2023-04-24T07:08:54.322Z,97088.41
2023-04-24T07:11:20.458Z,97090.28
2023-04-24T07:13:46.567Z,97089.47
2023-04-24T07:16:12.668Z,97087.63
2023-04-24T07:18:41.124Z,97091.31
2023-04-24T07:21:07.249Z,97089.47
2023-04-24T07:23:33.354Z,97091.31
2023-04-24T07:25:59.460Z,97092.97
2023-04-24T07:28:25.591Z,97087.84
2023-04-24T07:30:51.689Z,97085.97
2023-04-24T07:33:17.826Z,97092.16
2023-04-24T07:35:43.984Z,97089.72
2023-04-24T07:38:10.098Z,97100.41
2023-04-24T07:40:36.202Z,97102.28
2023-04-24T07:43:02.352Z,97099.59
2023-04-24T07:45:28.456Z,97095.88
2023-04-24T07:47:54.581Z,97095.06
2023-04-24T07:50:20.702Z,97098.81
2023-04-24T07:52:46.786Z,97094.25
2023-04-24T07:55:12.894Z,97095.28
2023-04-24T07:57:39.021Z,97097.97
2023-04-24T08:00:05.111Z,97098.81
2023-04-24T08:02:31.345Z,97112.16
2023-04-24T08:04:59.420Z,97104.38
2023-04-24T08:07:26.374Z,97116.94
2023-04-24T08:09:52.519Z,97112.41
2023-04-24T08:12:18.658Z,97117.75
2023-04-24T08:14:44.967Z,97119.84
2023-04-24T08:17:11.163Z,97122.53
2023-04-24T08:19:37.338Z,97128.66
2023-04-24T08:22:03.425Z,97128.94
2023-04-24T08:24:29.528Z,97119.84
2023-04-24T08:26:56.157Z,97124.63
2023-04-24T08:29:22.240Z,97131.84
2023-04-24T08:31:48.407Z,97133.69
2023-04-24T08:34:14.548Z,97137.41
2023-04-24T08:36:47.002Z,97133.13
2023-04-24T08:39:13.737Z,97133.94
2023-04-24T08:41:39.906Z,97146.25
2023-04-24T08:44:06.026Z,97149.16
2023-04-24T08:46:32.301Z,97122.66
2023-04-24T08:48:58.505Z,97149.38
2023-04-24T08:51:24.610Z,97146.72
2023-04-24T08:53:50.720Z,97148.59
2023-04-24T08:56:16.870Z,97157.41
2023-04-24T08:58:42.987Z,97163.59
2023-04-24T09:01:09.138Z,97155.00
2023-04-24T09:03:35.426Z,97155.00
2023-04-24T09:06:01.829Z,97165.69
2023-04-24T09:08:27.971Z,97167.53
2023-04-24T09:10:54.105Z,97180.09
2023-04-24T09:13:20.190Z,97190.78
2023-04-24T09:15:46.293Z,97172.06
2023-04-24T09:18:12.411Z,97174.75
2023-04-24T09:20:38.523Z,97178.47
2023-04-24T09:23:04.623Z,97189.16
2023-04-24T09:25:30.746Z,97185.44
2023-04-24T09:27:56.852Z,97181.97
2023-04-24T09:30:22.930Z,97173.13
2023-04-24T09:32:49.583Z,97177.66
2023-04-24T09:35:15.732Z,97169.88
2023-04-24T09:37:41.834Z,97192.06
2023-04-24T09:40:07.960Z,97184.84
2023-04-24T09:42:34.072Z,97198.22
2023-04-24T09:45:12.118Z,97208.91
2023-04-24T09:47:41.153Z,97218.81
2023-04-24T09:50:07.330Z,97220.66
2023-04-24T09:52:33.441Z,97222.53
2023-04-24T09:54:59.667Z,97226.25
2023-04-24T09:57:25.794Z,97242.28
2023-04-24T09:59:51.890Z,97246.81
2023-04-24T10:02:18.052Z,97246.00
2023-04-24T10:04:44.218Z,97250.56
2023-04-24T10:07:10.319Z,97266.59
2023-04-24T10:09:36.730Z,97260.41
2023-04-24T10:12:02.839Z,97264.94
2023-04-24T10:14:29.004Z,97271.34
2023-04-24T10:16:55.155Z,97274.03
2023-04-24T10:19:21.368Z,97270.28
2023-04-24T10:21:47.650Z,97285.75
2023-04-24T10:24:13.808Z,97292.97
2023-04-24T10:26:39.895Z,97319.69
2023-04-24T10:29:05.982Z,97325.28
2023-04-24T10:31:32.152Z,97336.00
2023-04-24T10:33:58.330Z,97347.72
2023-04-24T10:36:24.442Z,97363.75
2023-04-24T10:38:50.600Z,97354.91
2023-04-24T10:41:16.706Z,97361.31
2023-04-24T10:43:42.816Z,97364.81
2023-04-24T10:46:09.366Z,97382.72
2023-04-24T10:48:35.488Z,97405.94
2023-04-24T10:51:01.578Z,97400.84
2023-04-24T10:53:27.719Z,97420.34
2023-04-24T10:55:53.846Z,97416.88
2023-04-24T10:58:19.940Z,97418.69
2023-04-24T11:00:46.108Z,97421.38
2023-04-24T11:03:12.380Z,97418.97
2023-04-24T11:05:38.613Z,97425.31
2023-04-24T11:08:07.265Z,97432.53
2023-04-24T11:10:33.496Z,97432.31
2023-04-24T11:12:59.595Z,97431.50
2023-04-24T11:15:25.720Z,97434.63
2023-04-24T11:17:51.900Z,97437.88
2023-04-24T11:20:27.634Z,97445.91
2023-04-24T11:22:54.622Z,97458.47
2023-04-24T11:25:20.716Z,97459.25
2023-04-24T11:27:46.823Z,97463.00
2023-04-24T11:30:12.987Z,97465.88
2023-04-24T11:32:39.185Z,97468.56
2023-04-24T11:35:05.305Z,97467.75
2023-04-24T11:37:31.476Z,97470.22
2023-04-24T11:39:57.801Z,97466.69
2023-04-24T11:42:24.130Z,97476.56
2023-04-24T11:44:50.428Z,97482.72
2023-04-24T11:47:16.515Z,97494.47
2023-04-24T11:49:42.632Z,97497.16
2023-04-24T11:52:08.781Z,97500.03
2023-04-24T11:54:34.875Z,97501.69
2023-04-24T11:57:00.976Z,97507.84
2023-04-24T11:59:27.224Z,97504.34
2023-04-24T12:01:53.318Z,97511.53
2023-04-24T12:04:19.520Z,97510.72
2023-04-24T12:06:45.886Z,97509.91
2023-04-24T12:09:18.217Z,97517.72
2023-04-24T12:11:44.824Z,97509.91
2023-04-24T12:14:11.010Z,97508.06
2023-04-24T12:16:37.176Z,97515.28
2023-04-24T12:19:03.337Z,97517.94
2023-04-24T12:21:29.452Z,97524.09
2023-04-24T12:23:55.546Z,97521.41
2023-04-24T12:26:21.652Z,97523.28
2023-04-24T12:28:47.770Z,97528.84
2023-04-24T12:31:13.909Z,97535.03
2023-04-24T12:33:40.178Z,97533.38
2023-04-24T12:36:06.391Z,97537.13
2023-04-24T12:38:32.507Z,97543.25
2023-04-24T12:40:58.600Z,97569.19
2023-04-24T12:43:24.801Z,97549.41
2023-04-24T12:45:50.922Z,97546.16
2023-04-24T12:48:17.084Z,97554.16
2023-04-24T12:50:45.699Z,97555.22
2023-04-24T12:53:12.776Z,97558.72
2023-04-24T12:55:38.928Z,97560.56
2023-04-24T12:58:05.059Z,97549.06
2023-04-24T13:00:31.223Z,97559.97
2023-04-24T13:02:57.422Z,97550.91
2023-04-24T13:05:25.235Z,97563.25
2023-04-24T13:07:51.661Z,97565.91
2023-04-24T13:10:17.777Z,97572.28
2023-04-24T13:12:43.905Z,97571.25
2023-04-24T13:15:10.199Z,97570.19
2023-04-24T13:17:36.360Z,97576.59
2023-04-24T13:20:02.521Z,97570.44
2023-04-24T13:22:28.618Z,97568.00
2023-04-24T13:24:54.750Z,97582.41
2023-04-24T13:27:20.881Z,97595.78
2023-04-24T13:29:46.977Z,97593.91
2023-04-24T13:32:13.106Z,97587.75
2023-04-24T13:34:39.249Z,97590.63
2023-04-24T13:37:05.414Z,97593.09
2023-04-24T13:39:31.693Z,97595.97
2023-04-24T13:41:57.881Z,97597.84
2023-04-24T13:44:23.980Z,97585.50
2023-04-24T13:46:50.097Z,97589.03
2023-04-24T13:49:16.225Z,97598.88
2023-04-24T13:51:42.330Z,97598.31
2023-04-24T13:54:08.431Z,97583.09
2023-04-24T13:56:34.537Z,97596.66
2023-04-24T13:59:00.623Z,97599.13
2023-04-24T14:01:26.880Z,97603.66
2023-04-24T14:03:53.172Z,97612.47
2023-04-24T14:06:19.455Z,97608.16
2023-04-24T14:08:45.563Z,97610.63
2023-04-24T14:11:11.678Z,97612.69
2023-04-24T14:13:37.793Z,97604.69
2023-04-24T14:16:03.892Z,97608.16
2023-04-24T14:18:30.073Z,97626.84
2023-04-24T14:20:56.160Z,97623.38
2023-04-24T14:23:22.268Z,97618.03
2023-04-24T14:25:48.392Z,97613.50
2023-04-24T14:28:14.498Z,97626.06
2023-04-24T14:30:40.599Z,97620.69
2023-04-24T14:33:06.773Z,97620.91
2023-04-24T14:35:32.895Z,97631.84
2023-04-24T14:37:59.025Z,97626.50
2023-04-24T14:40:48.416Z,97630.78
2023-04-24T14:43:11.214Z,97628.13
2023-04-24T14:45:37.832Z,97616.84
2023-04-24T14:48:03.985Z,97633.47
2023-04-24T14:50:30.167Z,97630.00
2023-04-24T14:52:56.403Z,97628.94
2023-04-24T14:55:22.516Z,97626.50
2023-04-24T14:57:48.659Z,97620.09
2023-04-24T15:00:14.777Z,97621.16
2023-04-24T15:02:41.006Z,97628.13
2023-04-24T15:05:07.421Z,97627.53
2023-04-24T15:07:33.584Z,97624.84
2023-04-24T15:09:59.751Z,97626.50
2023-04-24T15:12:27.190Z,97626.50
2023-04-24T15:14:53.295Z,97620.34
2023-04-24T15:17:19.401Z,97623.84
2023-04-24T15:19:45.524Z,97631.03
2023-04-24T15:22:12.252Z,97625.44
2023-04-24T15:24:38.358Z,97625.69
2023-04-24T15:27:04.444Z,97636.38
2023-04-24T15:29:30.555Z,97634.72
2023-04-24T15:31:56.698Z,97637.19
2023-04-24T15:34:22.805Z,97629.19
2023-04-24T15:36:48.928Z,97631.03
2023-04-24T15:39:15.041Z,97632.88
2023-04-24T15:41:41.135Z,97640.06
2023-04-24T15:44:07.269Z,97643.00
2023-04-24T15:46:33.437Z,97641.94
2023-04-24T15:48:59.585Z,97649.97
2023-04-24T15:51:25.921Z,97651.81
2023-04-24T15:53:52.028Z,97655.31
2023-04-24T15:56:18.130Z,97670.53
2023-04-24T15:58:44.250Z,97668.88
2023-04-24T16:01:10.384Z,97660.84
2023-04-24T16:03:36.659Z,97663.53
2023-04-24T16:06:02.891Z,97659.03
2023-04-24T16:08:28.989Z,97654.69
2023-04-24T16:10:55.073Z,97660.25
2023-04-24T16:13:21.199Z,97668.28
2023-04-24T16:15:47.321Z,97662.72
2023-04-24T16:18:13.487Z,97664.38
2023-04-24T16:20:39.743Z,97673.41
2023-04-24T16:23:05.860Z,97670.72
2023-04-24T16:25:31.965Z,97664.56
2023-04-24T16:27:58.078Z,97668.06
2023-04-24T16:30:24.185Z,97670.72
2023-04-24T16:32:50.373Z,97671.78
2023-04-24T16:35:16.608Z,97672.59
2023-04-24T16:37:42.693Z,97672.81
2023-04-24T16:40:08.778Z,97690.69
2023-04-24T16:42:34.892Z,97687.44
2023-04-24T16:45:01.004Z,97685.34
2023-04-24T16:47:27.131Z,97697.66
2023-04-24T16:49:53.275Z,97693.16
2023-04-24T16:52:19.354Z,97687.81
2023-04-24T16:54:45.453Z,97692.56
2023-04-24T16:57:12.089Z,97688.03
2023-04-24T16:59:44.394Z,97696.84
2023-04-24T17:02:10.528Z,97689.88
2023-04-24T17:04:36.881Z,97688.25
2023-04-24T17:07:03.069Z,97694.03
2023-04-24T17:09:29.175Z,97688.25
2023-04-24T17:11:55.305Z,97684.53
2023-04-24T17:14:21.390Z,97692.31
2023-04-24T17:16:47.544Z,97691.28
2023-04-24T17:19:13.745Z,97697.66
2023-04-24T17:21:39.945Z,97691.50
2023-04-24T17:24:06.057Z,97700.56
2023-04-24T17:26:32.243Z,97697.09
2023-04-24T17:28:58.359Z,97703.25
2023-04-24T17:31:24.506Z,97700.56
2023-04-24T17:33:50.635Z,97703.47
2023-04-24T17:36:16.718Z,97707.19
2023-04-24T17:38:42.806Z,97700.78
2023-04-24T17:41:08.919Z,97703.47
2023-04-24T17:43:35.095Z,97706.38
2023-04-24T17:46:01.244Z,97705.31
2023-04-24T17:48:27.466Z,97705.31
2023-04-24T17:50:53.624Z,97708.78
2023-04-24T17:53:19.749Z,97711.91
2023-04-24T17:55:45.916Z,97705.53
2023-04-24T17:58:12.020Z,97708.78
2023-04-24T18:00:38.128Z,97717.06
2023-04-24T18:03:04.407Z,97718.69
2023-04-24T18:05:30.569Z,97714.13
2023-04-24T18:07:56.674Z,97721.34
2023-04-24T18:10:23.016Z,97727.50
2023-04-24T18:12:49.161Z,97726.91
2023-04-24T18:15:15.312Z,97731.63
2023-04-24T18:17:41.493Z,97740.50
2023-04-24T18:20:07.632Z,97737.81
2023-04-24T18:22:33.739Z,97743.78
2023-04-24T18:24:59.843Z,97743.16
2023-04-24T18:27:25.947Z,97747.91
2023-04-24T18:29:52.038Z,97745.00
2023-04-24T18:32:18.686Z,97745.00
2023-04-24T18:34:44.811Z,97748.94
2023-04-24T18:37:10.905Z,97750.34
2023-04-24T18:39:37.032Z,97754.88
2023-04-24T18:42:03.134Z,97749.53
2023-04-24T18:44:29.228Z,97752.19
2023-04-24T18:46:55.387Z,97749.31
2023-04-24T18:49:21.527Z,97756.53
2023-04-24T18:51:53.645Z,97760.00
2023-04-24T18:54:20.779Z,97768.03
2023-04-24T18:56:46.869Z,97772.31
2023-04-24T18:59:12.958Z,97775.44
2023-04-24T19:01:39.710Z,97764.53
2023-04-24T19:04:05.866Z,97768.03
2023-04-24T19:06:31.984Z,97768.03
2023-04-24T19:08:58.093Z,97768.84
2023-04-24T19:11:24.187Z,97773.97
2023-04-24T19:13:50.283Z,97770.50
2023-04-24T19:16:16.447Z,97773.16
2023-04-24T19:18:42.554Z,97773.16
2023-04-24T19:21:08.646Z,97781.19
2023-04-24T19:23:34.756Z,97789.19
2023-04-24T19:26:00.851Z,97789.19
2023-04-24T19:28:26.938Z,97800.69
2023-04-24T19:30:53.061Z,97796.38
2023-04-24T19:33:19.161Z,97791.00
2023-04-24T19:35:45.260Z,97787.31
2023-04-24T19:38:11.365Z,97790.22
2023-04-24T19:40:37.459Z,97792.88
2023-04-24T19:43:03.564Z,97788.34
2023-04-24T19:45:29.687Z,97791.84
2023-04-24T19:47:55.855Z,97788.59
2023-04-24T19:50:21.993Z,97789.41
2023-04-24T19:52:48.120Z,97785.06
2023-04-24T19:55:14.214Z,97794.75
2023-04-24T19:57:40.308Z,97789.59
2023-04-24T20:00:06.469Z,97788.59
2023-04-24T20:02:32.665Z,97787.75
2023-04-24T20:04:58.897Z,97788.59
2023-04-24T20:07:25.097Z,97786.13
2023-04-24T20:09:51.222Z,97787.75
2023-04-24T20:12:17.341Z,97785.31
2023-04-24T20:14:43.474Z,97786.13
2023-04-24T20:17:09.578Z,97786.94
2023-04-24T20:19:35.676Z,97788.78
2023-04-24T20:22:01.859Z,97786.31
2023-04-24T20:24:27.955Z,97790.66
2023-04-24T20:26:54.045Z,97791.47
2023-04-24T20:29:20.154Z,97789.00
2023-04-24T20:31:46.296Z,97789.00
2023-04-24T20:34:12.410Z,97792.72
2023-04-24T20:36:38.538Z,97783.66
2023-04-24T20:39:04.639Z,97794.34
2023-04-24T20:41:30.756Z,97791.91
2023-04-24T20:43:56.868Z,97795.41
2023-04-24T20:46:23.003Z,97803.41
2023-04-24T20:48:49.372Z,97799.94
2023-04-24T20:51:15.705Z,97797.25
2023-04-24T20:53:41.790Z,97806.06
2023-04-24T20:56:07.902Z,97800.94
2023-04-24T20:58:34.118Z,97800.94
2023-04-24T21:01:00.490Z,97800.13
2023-04-24T21:03:26.748Z,97802.81
2023-04-24T21:05:53.067Z,97800.13
2023-04-24T21:08:19.180Z,97798.50
2023-04-24T21:10:45.277Z,97796.84
2023-04-24T21:13:11.392Z,97803.84
2023-04-24T21:15:37.496Z,97796.66
2023-04-24T21:18:03.696Z,97795.84
2023-04-24T21:20:29.826Z,97804.66
2023-04-24T21:22:55.928Z,97796.84
2023-04-24T21:25:22.024Z,97796.03
2023-04-24T21:27:48.177Z,97798.50
2023-04-24T21:30:14.281Z,97794.19
2023-04-24T21:32:40.578Z,97789.91
2023-04-24T21:35:06.874Z,97800.56
2023-04-24T21:37:32.960Z,97797.09
2023-04-24T21:39:59.053Z,97798.94
2023-04-24T21:42:25.257Z,97801.59
2023-04-24T21:44:51.359Z,97797.09
2023-04-24T21:47:17.467Z,97796.25
2023-04-24T21:49:43.564Z,97790.91
2023-04-24T21:52:09.652Z,97792.97
2023-04-24T21:54:35.757Z,97793.78
2023-04-24T21:57:01.878Z,97791.94
2023-04-24T21:59:27.966Z,97784.97
2023-04-24T22:01:54.070Z,97783.91
2023-04-24T22:04:20.448Z,97790.31
2023-04-24T22:06:46.935Z,97788.66
2023-04-24T22:09:13.056Z,97789.47
2023-04-24T22:11:39.204Z,97785.97
2023-04-24T22:14:05.319Z,97785.97
2023-04-24T22:16:31.508Z,97774.50
2023-04-24T22:18:57.658Z,97779.84
2023-04-24T22:21:23.773Z,97786.78
2023-04-24T22:23:50.187Z,97786.78
2023-04-24T22:26:16.578Z,97787.63
2023-04-24T22:28:42.690Z,97783.31
2023-04-24T22:31:08.807Z,97796.66
2023-04-24T22:33:34.930Z,97790.31
2023-04-24T22:36:01.022Z,97787.03
2023-04-24T22:38:27.115Z,97787.03
2023-04-24T22:40:53.225Z,97785.16
2023-04-24T22:43:19.336Z,97781.69
2023-04-24T22:45:45.470Z,97779.84
2023-04-24T22:48:11.587Z,97788.88
2023-04-24T22:50:37.683Z,97786.22
2023-04-24T22:53:03.824Z,97776.34
2023-04-24T22:55:29.959Z,97776.34
2023-04-24T22:57:56.069Z,97777.38
2023-04-24T23:00:22.167Z,97776.56
2023-04-24T23:02:48.425Z,97773.88
2023-04-24T23:05:14.583Z,97777.59
2023-04-24T23:07:40.676Z,97784.56
2023-04-24T23:10:06.795Z,97776.75
2023-04-24T23:12:32.877Z,97783.75
2023-04-24T23:14:58.980Z,97774.09
2023-04-24T23:17:25.108Z,97770.63
2023-04-24T23:19:51.254Z,97780.47
2023-04-24T23:22:17.365Z,97772.47
2023-04-24T23:24:43.496Z,97773.53
2023-04-24T23:27:09.582Z,97784.19
2023-04-24T23:29:35.673Z,97775.34
2023-04-24T23:32:01.928Z,97780.69
2023-04-24T23:34:28.166Z,97779.66
2023-04-24T23:36:54.279Z,97777.22
2023-04-24T23:39:20.424Z,97771.88
2023-04-24T23:41:46.540Z,97779.88
2023-04-24T23:44:12.652Z,97778.25
2023-04-24T23:46:38.782Z,97770.25
2023-04-24T23:49:04.870Z,97776.59
2023-04-24T23:51:31.034Z,97769.63
2023-04-24T23:53:57.164Z,97773.13
2023-04-24T23:56:23.265Z,97773.94
2023-04-24T23:58:49.358Z,97777.66
